sensor_id;sensor_type;location;lat;lon;timestamp;P1;durP1;ratioP1;P2;durP2;ratioP2
64242;SDS011;50573;51.512;5.386;2022-11-20T00:07:34;37.55;;;19.00;;
64242;SDS011;50573;51.512;5.386;2022-11-20T00:17:39;33.58;;;17.90;;
64242;SDS011;50573;51.512;5.386;2022-11-20T00:27:42;31.27;;;17.33;;
64242;SDS011;50573;51.512;5.386;2022-11-20T00:37:46;33.85;;;18.10;;
64242;SDS011;50573;51.512;5.386;2022-11-20T00:47:49;34.92;;;18.92;;
64242;SDS011;50573;51.512;5.386;2022-11-20T00:57:53;33.05;;;18.80;;
64242;SDS011;50573;51.512;5.386;2022-11-20T01:07:56;33.78;;;19.02;;
64242;SDS011;50573;51.512;5.386;2022-11-20T01:18:01;32.08;;;17.30;;
64242;SDS011;50573;51.512;5.386;2022-11-20T01:28:04;32.03;;;16.98;;
64242;SDS011;50573;51.512;5.386;2022-11-20T01:38:08;37.78;;;18.88;;
64242;SDS011;50573;51.512;5.386;2022-11-20T01:48:11;31.27;;;17.67;;
64242;SDS011;50573;51.512;5.386;2022-11-20T01:58:15;32.90;;;17.17;;
64242;SDS011;50573;51.512;5.386;2022-11-20T02:08:23;38.60;;;18.30;;
64242;SDS011;50573;51.512;5.386;2022-11-20T02:18:28;36.50;;;18.30;;
64242;SDS011;50573;51.512;5.386;2022-11-20T02:28:33;34.25;;;17.85;;
64242;SDS011;50573;51.512;5.386;2022-11-20T02:38:37;40.22;;;20.17;;
64242;SDS011;50573;51.512;5.386;2022-11-20T02:48:42;37.03;;;18.90;;
64242;SDS011;50573;51.512;5.386;2022-11-20T02:58:45;41.28;;;21.52;;
64242;SDS011;50573;51.512;5.386;2022-11-20T03:08:49;32.63;;;18.73;;
64242;SDS011;50573;51.512;5.386;2022-11-20T03:18:52;36.35;;;19.20;;
64242;SDS011;50573;51.512;5.386;2022-11-20T03:28:57;38.58;;;19.48;;
64242;SDS011;50573;51.512;5.386;2022-11-20T03:39:01;33.42;;;19.02;;
64242;SDS011;50573;51.512;5.386;2022-11-20T03:49:06;32.38;;;18.83;;
64242;SDS011;50573;51.512;5.386;2022-11-20T03:59:09;40.97;;;20.02;;
64242;SDS011;50573;51.512;5.386;2022-11-20T04:09:14;38.20;;;20.40;;
64242;SDS011;50573;51.512;5.386;2022-11-20T04:19:17;33.28;;;18.23;;
64242;SDS011;50573;51.512;5.386;2022-11-20T04:29:22;36.75;;;19.77;;
64242;SDS011;50573;51.512;5.386;2022-11-20T04:39:25;35.97;;;20.05;;
64242;SDS011;50573;51.512;5.386;2022-11-20T04:49:30;39.33;;;19.10;;
64242;SDS011;50573;51.512;5.386;2022-11-20T04:59:33;38.05;;;19.77;;
64242;SDS011;50573;51.512;5.386;2022-11-20T05:09:37;44.13;;;21.05;;
64242;SDS011;50573;51.512;5.386;2022-11-20T05:19:40;38.90;;;21.05;;
64242;SDS011;50573;51.512;5.386;2022-11-20T05:29:44;38.08;;;19.15;;
64242;SDS011;50573;51.512;5.386;2022-11-20T05:39:47;37.47;;;20.00;;
64242;SDS011;50573;51.512;5.386;2022-11-20T05:49:52;39.72;;;21.17;;
64242;SDS011;50573;51.512;5.386;2022-11-20T05:59:55;40.20;;;20.15;;
64242;SDS011;50573;51.512;5.386;2022-11-20T06:09:59;42.47;;;19.75;;
64242;SDS011;50573;51.512;5.386;2022-11-20T06:20:02;35.77;;;19.97;;
64242;SDS011;50573;51.512;5.386;2022-11-20T06:30:08;33.88;;;20.20;;
64242;SDS011;50573;51.512;5.386;2022-11-20T06:40:12;32.50;;;18.88;;
64242;SDS011;50573;51.512;5.386;2022-11-20T06:50:16;40.42;;;21.73;;
64242;SDS011;50573;51.512;5.386;2022-11-20T07:00:19;44.77;;;24.13;;
64242;SDS011;50573;51.512;5.386;2022-11-20T07:10:23;42.83;;;25.90;;
64242;SDS011;50573;51.512;5.386;2022-11-20T07:20:27;49.05;;;25.65;;
64242;SDS011;50573;51.512;5.386;2022-11-20T07:30:32;49.10;;;28.20;;
64242;SDS011;50573;51.512;5.386;2022-11-20T07:40:35;51.42;;;29.55;;
64242;SDS011;50573;51.512;5.386;2022-11-20T07:50:39;44.92;;;27.15;;
64242;SDS011;50573;51.512;5.386;2022-11-20T08:00:42;44.33;;;24.77;;
64242;SDS011;50573;51.512;5.386;2022-11-20T08:10:46;38.97;;;22.40;;
64242;SDS011;50573;51.512;5.386;2022-11-20T08:20:49;27.40;;;14.53;;
64242;SDS011;50573;51.512;5.386;2022-11-20T08:30:58;36.85;;;21.17;;
64242;SDS011;50573;51.512;5.386;2022-11-20T08:41:02;38.03;;;22.35;;
64242;SDS011;50573;51.512;5.386;2022-11-20T08:51:25;40.90;;;22.73;;
64242;SDS011;50573;51.512;5.386;2022-11-20T09:01:29;35.70;;;21.33;;
64242;SDS011;50573;51.512;5.386;2022-11-20T09:11:34;32.70;;;19.88;;
64242;SDS011;50573;51.512;5.386;2022-11-20T09:21:37;50.47;;;24.88;;
64242;SDS011;50573;51.512;5.386;2022-11-20T09:31:41;52.47;;;24.55;;
64242;SDS011;50573;51.512;5.386;2022-11-20T09:41:52;42.67;;;21.53;;
64242;SDS011;50573;51.512;5.386;2022-11-20T09:52:09;61.00;;;28.60;;
64242;SDS011;50573;51.512;5.386;2022-11-20T10:02:25;65.53;;;30.38;;
64242;SDS011;50573;51.512;5.386;2022-11-20T10:12:36;63.53;;;30.27;;
64242;SDS011;50573;51.512;5.386;2022-11-20T10:33:11;66.95;;;30.90;;
64242;SDS011;50573;51.512;5.386;2022-11-20T10:43:19;65.32;;;31.00;;
64242;SDS011;50573;51.512;5.386;2022-11-20T10:53:33;63.70;;;31.25;;
64242;SDS011;50573;51.512;5.386;2022-11-20T11:03:47;68.03;;;34.70;;
64242;SDS011;50573;51.512;5.386;2022-11-20T11:13:52;60.80;;;32.15;;
64242;SDS011;50573;51.512;5.386;2022-11-20T11:23:59;75.67;;;35.93;;
64242;SDS011;50573;51.512;5.386;2022-11-20T11:34:25;64.57;;;32.95;;
64242;SDS011;50573;51.512;5.386;2022-11-20T11:44:30;74.70;;;34.83;;
64242;SDS011;50573;51.512;5.386;2022-11-20T11:54:54;82.20;;;38.67;;
64242;SDS011;50573;51.512;5.386;2022-11-20T12:05:00;82.05;;;38.30;;
64242;SDS011;50573;51.512;5.386;2022-11-20T12:15:13;91.88;;;41.30;;
64242;SDS011;50573;51.512;5.386;2022-11-20T12:25:24;84.50;;;38.60;;
64242;SDS011;50573;51.512;5.386;2022-11-20T12:35:35;81.03;;;38.60;;
64242;SDS011;50573;51.512;5.386;2022-11-20T12:46:01;71.78;;;34.55;;
64242;SDS011;50573;51.512;5.386;2022-11-20T12:56:23;84.55;;;37.97;;
64242;SDS011;50573;51.512;5.386;2022-11-20T13:06:33;82.07;;;36.60;;
64242;SDS011;50573;51.512;5.386;2022-11-20T13:16:38;77.22;;;35.50;;
64242;SDS011;50573;51.512;5.386;2022-11-20T13:26:47;72.95;;;34.25;;
64242;SDS011;50573;51.512;5.386;2022-11-20T13:36:52;82.85;;;37.03;;
64242;SDS011;50573;51.512;5.386;2022-11-20T13:46:56;84.68;;;38.72;;
64242;SDS011;50573;51.512;5.386;2022-11-20T13:57:04;88.68;;;38.38;;
64242;SDS011;50573;51.512;5.386;2022-11-20T14:07:17;90.85;;;38.67;;
64242;SDS011;50573;51.512;5.386;2022-11-20T14:17:30;78.53;;;37.53;;
64242;SDS011;50573;51.512;5.386;2022-11-20T14:27:36;87.82;;;37.17;;
64242;SDS011;50573;51.512;5.386;2022-11-20T14:37:42;104.90;;;41.75;;
64242;SDS011;50573;51.512;5.386;2022-11-20T14:47:45;108.80;;;42.67;;
64242;SDS011;50573;51.512;5.386;2022-11-20T14:57:55;114.80;;;46.92;;
64242;SDS011;50573;51.512;5.386;2022-11-20T15:08:04;114.25;;;45.83;;
64242;SDS011;50573;51.512;5.386;2022-11-20T15:18:11;115.57;;;46.85;;
64242;SDS011;50573;51.512;5.386;2022-11-20T15:28:16;149.45;;;53.25;;
64242;SDS011;50573;51.512;5.386;2022-11-20T15:38:22;147.55;;;48.47;;
64242;SDS011;50573;51.512;5.386;2022-11-20T15:48:26;145.93;;;46.60;;
64242;SDS011;50573;51.512;5.386;2022-11-20T15:58:33;142.90;;;47.08;;
64242;SDS011;50573;51.512;5.386;2022-11-20T16:08:36;150.73;;;46.97;;
64242;SDS011;50573;51.512;5.386;2022-11-20T16:18:40;109.53;;;37.90;;
64242;SDS011;50573;51.512;5.386;2022-11-20T16:28:43;103.33;;;38.70;;
64242;SDS011;50573;51.512;5.386;2022-11-20T16:38:51;114.55;;;37.70;;
64242;SDS011;50573;51.512;5.386;2022-11-20T16:48:55;117.88;;;38.00;;
64242;SDS011;50573;51.512;5.386;2022-11-20T16:59:00;57.37;;;27.13;;
64242;SDS011;50573;51.512;5.386;2022-11-20T17:29:15;29.83;;;22.97;;
64242;SDS011;50573;51.512;5.386;2022-11-20T17:39:23;27.33;;;17.95;;
64242;SDS011;50573;51.512;5.386;2022-11-20T17:49:26;21.30;;;13.40;;
64242;SDS011;50573;51.512;5.386;2022-11-20T17:59:31;21.52;;;8.80;;
64242;SDS011;50573;51.512;5.386;2022-11-20T18:09:34;18.33;;;8.70;;
64242;SDS011;50573;51.512;5.386;2022-11-20T18:19:39;21.15;;;10.65;;
64242;SDS011;50573;51.512;5.386;2022-11-20T18:30:05;22.77;;;10.57;;
64242;SDS011;50573;51.512;5.386;2022-11-20T18:40:11;22.80;;;12.50;;
64242;SDS011;50573;51.512;5.386;2022-11-20T18:50:15;24.55;;;15.25;;
64242;SDS011;50573;51.512;5.386;2022-11-20T19:00:21;27.37;;;15.20;;
64242;SDS011;50573;51.512;5.386;2022-11-20T19:20:29;32.58;;;18.15;;
64242;SDS011;50573;51.512;5.386;2022-11-20T19:30:32;31.63;;;17.90;;
64242;SDS011;50573;51.512;5.386;2022-11-20T19:40:36;32.22;;;20.52;;
64242;SDS011;50573;51.512;5.386;2022-11-20T19:50:39;36.50;;;19.13;;
64242;SDS011;50573;51.512;5.386;2022-11-20T20:00:44;35.47;;;21.83;;
64242;SDS011;50573;51.512;5.386;2022-11-20T20:10:47;47.37;;;25.07;;
64242;SDS011;50573;51.512;5.386;2022-11-20T20:20:51;40.53;;;23.13;;
64242;SDS011;50573;51.512;5.386;2022-11-20T20:30:55;43.13;;;22.80;;
64242;SDS011;50573;51.512;5.386;2022-11-20T20:40:59;38.92;;;20.73;;
64242;SDS011;50573;51.512;5.386;2022-11-20T20:51:03;36.63;;;14.88;;
64242;SDS011;50573;51.512;5.386;2022-11-20T21:01:11;35.75;;;12.30;;
64242;SDS011;50573;51.512;5.386;2022-11-20T21:11:16;35.22;;;10.00;;
64242;SDS011;50573;51.512;5.386;2022-11-20T21:31:43;30.23;;;8.30;;
64242;SDS011;50573;51.512;5.386;2022-11-20T21:41:47;32.22;;;9.23;;
64242;SDS011;50573;51.512;5.386;2022-11-20T21:51:50;32.90;;;11.33;;
64242;SDS011;50573;51.512;5.386;2022-11-20T22:01:55;38.70;;;12.18;;
64242;SDS011;50573;51.512;5.386;2022-11-20T22:11:58;49.90;;;13.97;;
64242;SDS011;50573;51.512;5.386;2022-11-20T22:22:02;28.65;;;11.63;;
64242;SDS011;50573;51.512;5.386;2022-11-20T22:32:05;46.20;;;14.97;;
64242;SDS011;50573;51.512;5.386;2022-11-20T22:42:10;34.38;;;12.32;;
64242;SDS011;50573;51.512;5.386;2022-11-20T22:52:12;33.53;;;11.73;;
64242;SDS011;50573;51.512;5.386;2022-11-20T23:02:17;44.25;;;13.60;;
64242;SDS011;50573;51.512;5.386;2022-11-20T23:12:20;34.40;;;12.07;;
64242;SDS011;50573;51.512;5.386;2022-11-20T23:22:24;23.85;;;8.57;;
64242;SDS011;50573;51.512;5.386;2022-11-20T23:32:27;15.70;;;4.83;;
64242;SDS011;50573;51.512;5.386;2022-11-20T23:42:31;23.73;;;5.70;;
64242;SDS011;50573;51.512;5.386;2022-11-20T23:52:34;17.90;;;5.17;;
